Time;durP1;ratioP1;P1;durP2;ratioP2;P2;SDS_P1;SDS_P2;PMS_P1;PMS_P2;Temp;Humidity;BMP_temperature;BMP_pressure;BME280_temperature;BME280_humidity;BME280_pressure;Samples;Min_cycle;Max_cycle;Signal;HPM_P1;HPM_P2
2023/04/08 00:02:24;;;;;;;62.72;38.78;;;;;;;6.52;100.00;102132.69;5057549;28;20454;-57
2023/04/08 00:04:49;;;;;;;68.78;39.00;;;;;;;6.51;100.00;102130.91;5059298;28;20056;-57
2023/04/08 00:07:15;;;;;;;66.63;39.25;;;;;;;6.54;100.00;102133.66;5059131;28;20017;-57
2023/04/08 00:09:40;;;;;;;69.93;37.72;;;;;;;6.58;100.00;102129.63;5058347;28;20400;-57
2023/04/08 00:12:06;;;;;;;67.75;39.40;;;;;;;6.56;100.00;102131.22;5059076;28;20485;-57
2023/04/08 00:14:32;;;;;;;73.25;40.08;;;;;;;6.62;100.00;102135.84;5058557;28;20386;-57
2023/04/08 00:16:57;;;;;;;65.43;38.00;;;;;;;6.59;100.00;102128.84;5058063;28;20481;-57
2023/04/08 00:19:24;;;;;;;71.35;41.03;;;;;;;6.60;100.00;102128.06;5058707;28;20025;-57
2023/04/08 00:21:50;;;;;;;69.88;39.33;;;;;;;6.66;100.00;102135.25;5058940;28;20021;-56
2023/04/08 00:24:15;;;;;;;73.30;39.67;;;;;;;6.67;100.00;102129.34;5058315;28;20017;-57
2023/04/08 00:26:40;;;;;;;73.43;40.00;;;;;;;6.68;100.00;102131.13;5058897;28;20024;-57
2023/04/08 00:29:06;;;;;;;70.47;40.08;;;;;;;6.71;100.00;102128.75;5058663;28;20035;-57
2023/04/08 00:31:31;;;;;;;81.97;41.80;;;;;;;6.69;100.00;102132.91;5057602;28;20032;-57
2023/04/08 00:33:56;;;;;;;76.68;41.03;;;;;;;6.68;100.00;102133.69;5058896;28;20051;-57
2023/04/08 00:36:22;;;;;;;69.50;41.42;;;;;;;6.69;100.00;102130.34;5054644;28;20024;-57
2023/04/08 00:38:47;;;;;;;80.93;42.72;;;;;;;6.70;100.00;102132.09;5055692;28;20021;-57
2023/04/08 00:41:13;;;;;;;82.82;42.92;;;;;;;6.73;100.00;102128.06;5055734;28;20028;-57
2023/04/08 00:43:38;;;;;;;81.03;43.35;;;;;;;6.70;100.00;102133.00;5054679;28;20036;-57
2023/04/08 00:46:04;;;;;;;83.43;43.75;;;;;;;6.73;100.00;102138.31;5055549;28;20055;-57
2023/04/08 00:48:30;;;;;;;91.10;43.75;;;;;;;6.71;100.00;102139.00;5054926;28;20413;-57
2023/04/08 00:50:55;;;;;;;86.13;43.83;;;;;;;6.71;100.00;102142.47;5054497;28;20037;-57
2023/04/08 00:53:21;;;;;;;83.82;43.50;;;;;;;6.70;100.00;102143.25;5054981;28;20029;-57
2023/04/08 00:55:46;;;;;;;77.80;43.53;;;;;;;6.71;100.00;102139.00;5055409;28;20127;-57
2023/04/08 00:58:13;;;;;;;82.20;45.20;;;;;;;6.70;100.00;102142.34;5054519;28;20111;-57
2023/04/08 01:00:41;;;;;;;93.00;46.45;;;;;;;6.69;100.00;102135.47;5054760;28;20472;-57
2023/04/08 01:03:15;;;;;;;94.03;45.97;;;;;;;6.66;100.00;102135.25;5054841;28;20476;-57
2023/04/08 01:05:55;;;;;;;79.63;46.28;;;;;;;6.68;100.00;102143.94;5054393;28;20033;-57
2023/04/08 01:08:22;;;;;;;93.63;47.40;;;;;;;6.67;100.00;102139.59;5054769;28;20017;-57
2023/04/08 01:10:51;;;;;;;89.60;47.70;;;;;;;6.66;100.00;102146.41;5055092;28;20111;-57
2023/04/08 01:13:17;;;;;;;94.28;47.40;;;;;;;6.65;100.00;102143.72;5053855;28;20029;-57
2023/04/08 01:15:44;;;;;;;91.40;48.38;;;;;;;6.67;100.00;102137.91;5055078;28;20032;-57
2023/04/08 01:18:14;;;;;;;86.40;48.97;;;;;;;6.69;100.00;102140.59;5054842;28;20036;-57
2023/04/08 01:20:41;;;;;;;87.47;47.80;;;;;;;6.67;100.00;102142.16;5053779;28;20024;-57
2023/04/08 01:23:28;;;;;;;97.05;46.63;;;;;;;6.68;100.00;102149.06;5054812;28;20047;-56
2023/04/08 01:25:55;;;;;;;101.95;50.47;;;;;;;6.69;100.00;102150.84;5054336;28;20029;-57
2023/04/08 01:28:23;;;;;;;103.97;50.63;;;;;;;6.72;100.00;102145.91;5054550;28;20032;-57
2023/04/08 01:30:50;;;;;;;103.40;51.40;;;;;;;6.72;100.00;102148.47;5054843;28;20271;-57
2023/04/08 01:33:17;;;;;;;100.80;51.17;;;;;;;6.74;100.00;102146.91;5053666;28;20025;-57
2023/04/08 01:35:43;;;;;;;89.00;50.57;;;;;;;6.71;100.00;102149.25;5054584;28;20032;-57
2023/04/08 01:38:12;;;;;;;106.93;51.80;;;;;;;6.72;100.00;102151.03;5054286;28;20028;-57
2023/04/08 01:40:39;;;;;;;104.38;51.70;;;;;;;6.76;100.00;102147.88;5053526;28;20032;-57
2023/04/08 01:43:08;;;;;;;106.23;55.10;;;;;;;6.74;100.00;102159.72;5054322;28;20530;-57
2023/04/08 01:45:33;;;;;;;111.38;54.03;;;;;;;6.73;100.00;102157.94;5054206;28;20071;-56
2023/04/08 01:48:00;;;;;;;117.53;55.63;;;;;;;6.74;100.00;102154.59;5053193;28;20017;-57
2023/04/08 01:50:27;;;;;;;111.85;54.38;;;;;;;6.74;100.00;102155.47;5053924;28;20075;-57
2023/04/08 01:52:53;;;;;;;;;;;;;;;6.87;100.00;102161.44;5054748;28;20041;-57
2023/04/08 01:55:19;;;;;;;110.90;53.30;;;;;;;6.75;100.00;102162.38;5053172;28;19951;-57
2023/04/08 01:57:48;;;;;;;94.00;51.17;;;;;;;6.74;100.00;102164.84;5053978;28;20108;-57
2023/04/08 02:00:17;;;;;;;106.18;53.28;;;;;;;6.74;100.00;102163.16;5054027;28;20033;-57
2023/04/08 02:02:45;;;;;;;119.25;53.33;;;;;;;6.74;100.00;102159.72;5053073;28;20048;-57
2023/04/08 02:05:11;;;;;;;102.47;52.22;;;;;;;6.75;100.00;102156.34;5053816;28;20473;-57
2023/04/08 02:07:36;;;;;;;99.43;52.42;;;;;;;6.77;100.00;102162.47;5053738;28;20040;-57
2023/04/08 02:10:02;;;;;;;102.47;51.05;;;;;;;6.75;100.00;102157.25;5053289;28;20017;-57
2023/04/08 02:12:27;;;;;;;104.28;51.67;;;;;;;6.74;100.00;102157.16;5053650;28;20033;-57
2023/04/08 02:14:53;;;;;;;96.70;50.85;;;;;;;6.74;100.00;102165.72;5053113;28;20021;-57
2023/04/08 02:17:41;;;;;;;95.75;51.47;;;;;;;6.73;100.00;102163.94;5053376;28;20029;-57
2023/04/08 02:20:09;;;;;;;111.80;52.40;;;;;;;6.74;100.00;102162.28;5053779;28;20033;-57
2023/04/08 02:23:02;;;;;;;107.22;53.50;;;;;;;6.74;100.00;102162.28;5052833;28;20371;-56
2023/04/08 02:25:29;;;;;;;116.28;55.45;;;;;;;6.75;100.00;102169.16;5053207;28;20021;-56
2023/04/08 02:27:58;;;;;;;107.45;55.72;;;;;;;6.78;100.00;102163.34;5053512;28;20021;-57
2023/04/08 02:30:26;;;;;;;109.82;56.40;;;;;;;6.77;100.00;102165.03;5052362;28;20392;-56
2023/04/08 02:32:53;;;;;;;106.90;55.60;;;;;;;6.74;100.00;102175.09;5053557;28;20032;-57
2023/04/08 02:35:19;;;;;;;111.75;54.97;;;;;;;6.73;100.00;102169.06;5053182;28;20070;-57
2023/04/08 02:37:46;;;;;;;105.75;55.08;;;;;;;6.75;100.00;102161.47;5052482;28;20478;-56
2023/04/08 02:40:29;;;;;;;98.97;52.78;;;;;;;6.79;100.00;102168.63;5053303;28;20369;-57
2023/04/08 02:42:55;;;;;;;116.72;53.67;;;;;;;6.73;100.00;102173.31;5052525;28;20400;-57
2023/04/08 02:45:21;;;;;;;102.15;54.03;;;;;;;6.74;100.00;102169.97;5053137;28;20469;-57
2023/04/08 02:47:46;;;;;;;103.20;52.97;;;;;;;6.71;100.00;102174.88;5053346;28;20114;-57
2023/04/08 02:50:12;;;;;;;106.03;52.53;;;;;;;6.73;100.00;102168.19;5052308;28;20907;-56
2023/04/08 02:52:37;;;;;;;103.82;53.33;;;;;;;6.71;100.00;102180.00;5052867;28;20029;-57
2023/04/08 02:55:05;;;;;;;117.25;53.22;;;;;;;6.75;100.00;102182.88;5053118;28;20017;-57
2023/04/08 02:57:30;;;;;;;119.55;57.40;;;;;;;6.75;100.00;102174.28;5051957;28;20029;-57
2023/04/08 02:59:56;;;;;;;128.15;57.67;;;;;;;6.74;100.00;102178.53;5052487;28;20036;-57
2023/04/08 03:02:21;;;;;;;124.28;57.38;;;;;;;6.71;100.00;102175.78;5052529;28;20074;-57
2023/04/08 03:04:46;;;;;;;141.88;60.13;;;;;;;6.69;100.00;102176.47;5052298;28;20025;-57
2023/04/08 03:07:11;;;;;;;137.02;60.28;;;;;;;6.67;100.00;102176.34;5052967;28;20112;-57
2023/04/08 03:09:37;;;;;;;141.13;58.92;;;;;;;6.63;100.00;102169.25;5052549;28;20036;-57
2023/04/08 03:12:02;;;;;;;143.60;59.75;;;;;;;6.61;100.00;102170.84;5052291;28;20108;-57
2023/04/08 03:14:27;;;;;;;114.25;55.97;;;;;;;6.48;100.00;102176.81;5052153;28;20036;-56
2023/04/08 03:16:53;;;;;;;103.97;53.00;;;;;;;6.44;100.00;102179.91;5052684;28;20480;-57
2023/04/08 03:19:18;;;;;;;108.75;53.25;;;;;;;6.44;100.00;102177.34;5051688;28;20040;-57
2023/04/08 03:21:43;;;;;;;132.77;58.05;;;;;;;6.43;100.00;102173.91;5052687;28;20036;-56
2023/04/08 03:24:08;;;;;;;138.13;58.42;;;;;;;6.35;100.00;102169.06;5052975;28;20025;-57
2023/04/08 03:26:34;;;;;;;126.72;57.50;;;;;;;6.29;100.00;102168.63;5051599;28;20025;-57
2023/04/08 03:28:59;;;;;;;140.85;60.75;;;;;;;6.31;100.00;102177.31;5052849;28;20377;-57
2023/04/08 03:31:25;;;;;;;134.30;60.97;;;;;;;6.16;100.00;102172.03;5052526;28;20029;-57
2023/04/08 03:33:50;;;;;;;138.85;60.88;;;;;;;6.16;100.00;102177.13;5051707;28;20053;-56
2023/04/08 03:36:15;;;;;;;130.45;59.42;;;;;;;6.10;100.00;102167.38;5052408;28;20029;-57
2023/04/08 03:38:41;;;;;;;134.10;59.88;;;;;;;6.00;100.00;102175.19;5052504;28;20021;-57
2023/04/08 03:41:06;;;;;;;141.30;60.10;;;;;;;5.93;100.00;102171.31;5051715;28;20029;-57
2023/04/08 03:43:31;;;;;;;140.50;57.13;;;;;;;5.88;100.00;102170.09;5052389;28;20017;-57
2023/04/08 03:45:56;;;;;;;115.45;55.00;;;;;;;5.74;100.00;102172.53;5052590;28;20028;-57
2023/04/08 03:48:22;;;;;;;120.05;55.10;;;;;;;5.65;100.00;102176.16;5051504;28;20021;-57
2023/04/08 03:50:47;;;;;;;132.60;59.90;;;;;;;5.64;100.00;102176.91;5052618;28;20103;-57
2023/04/08 03:53:12;;;;;;;121.60;58.90;;;;;;;5.61;100.00;102181.03;5051779;28;20104;-56
2023/04/08 03:55:38;;;;;;;127.32;57.00;;;;;;;5.56;100.00;102190.03;5051800;28;20036;-56
2023/04/08 03:58:03;;;;;;;108.47;54.05;;;;;;;5.46;100.00;102189.28;5052519;28;20372;-56
2023/04/08 04:00:29;;;;;;;89.85;50.42;;;;;;;5.47;100.00;102186.81;5051475;28;20025;-57
2023/04/08 04:02:55;;;;;;;111.93;55.83;;;;;;;5.53;100.00;102192.38;5052077;28;20568;-57
2023/04/08 04:05:20;;;;;;;139.60;59.08;;;;;;;5.63;100.00;102193.94;5052069;28;20021;-56
2023/04/08 04:07:45;;;;;;;129.55;61.15;;;;;;;5.71;100.00;102191.94;5051618;28;20099;-57
2023/04/08 04:10:11;;;;;;;118.88;57.20;;;;;;;5.70;100.00;102185.03;5053109;28;20025;-57
2023/04/08 04:12:36;;;;;;;107.38;54.22;;;;;;;5.68;100.00;102191.69;5055941;28;20025;-57
2023/04/08 04:15:01;;;;;;;112.15;56.90;;;;;;;5.74;100.00;102187.03;5055472;28;20062;-57
2023/04/08 04:17:27;;;;;;;125.68;57.38;;;;;;;5.79;100.00;102190.78;5055932;28;20071;-57
2023/04/08 04:19:52;;;;;;;113.30;53.95;;;;;;;5.71;100.00;102197.03;5055998;28;20025;-57
2023/04/08 04:22:17;;;;;;;93.07;50.13;;;;;;;5.69;100.00;102201.16;5054914;28;20022;-57
2023/04/08 04:24:47;;;;;;;89.15;47.58;;;;;;;5.68;100.00;102207.03;5055756;28;20032;-57
2023/04/08 04:27:12;;;;;;;94.75;47.97;;;;;;;5.75;100.00;102201.59;5055822;28;20460;-57
2023/04/08 04:29:37;;;;;;;116.03;54.10;;;;;;;5.77;100.00;102205.13;5054889;28;20044;-57
2023/04/08 04:32:03;;;;;;;114.05;56.13;;;;;;;5.85;100.00;102210.78;5055697;28;20028;-57
2023/04/08 04:34:28;;;;;;;97.53;51.05;;;;;;;5.76;100.00;102216.16;5055582;28;20025;-57
2023/04/08 04:36:53;;;;;;;89.85;49.05;;;;;;;5.80;100.00;102218.16;5054927;28;20017;-57
2023/04/08 04:39:19;;;;;;;88.85;47.35;;;;;;;5.81;100.00;102225.06;5055048;28;20101;-56
2023/04/08 04:41:46;;;;;;;92.03;45.88;;;;;;;5.77;100.00;102223.94;5055768;28;20025;-57
2023/04/08 04:44:11;;;;;;;102.33;52.07;;;;;;;5.86;100.00;102222.81;5054769;28;20602;-57
2023/04/08 04:46:36;;;;;;;107.97;50.05;;;;;;;5.82;100.00;102231.06;5055360;28;20120;-57
2023/04/08 04:49:01;;;;;;;135.88;57.90;;;;;;;5.86;100.00;102228.84;5055508;28;20025;-56
2023/04/08 04:51:27;;;;;;;165.63;64.03;;;;;;;5.92;100.00;102233.50;5054258;28;20429;-55
2023/04/08 04:53:52;;;;;;;178.68;67.45;;;;;;;5.94;100.00;102235.38;5055236;28;20029;-57
2023/04/08 04:56:17;;;;;;;175.60;67.05;;;;;;;5.98;100.00;102238.13;5054830;28;20111;-56
2023/04/08 04:58:43;;;;;;;211.88;74.20;;;;;;;6.01;100.00;102238.41;5054350;28;20033;-57
2023/04/08 05:01:08;;;;;;;253.05;81.72;;;;;;;6.04;100.00;102241.16;5055210;28;20531;-57
2023/04/08 05:03:33;;;;;;;268.25;82.53;;;;;;;6.05;100.00;102245.50;5053966;28;20056;-57
2023/04/08 05:05:59;;;;;;;300.60;82.90;;;;;;;6.05;100.00;102248.06;5055061;28;20376;-57
2023/04/08 05:08:24;;;;;;;295.85;81.10;;;;;;;6.04;100.00;102243.72;5054590;28;20025;-56
2023/04/08 05:10:50;;;;;;;269.92;79.85;;;;;;;6.04;100.00;102248.84;5054279;28;20021;-56
2023/04/08 05:13:16;;;;;;;295.80;80.20;;;;;;;6.01;100.00;102252.09;5055009;28;20078;-57
2023/04/08 05:15:47;;;;;;;254.57;77.78;;;;;;;6.02;100.00;102258.97;5055161;28;20506;-57
2023/04/08 05:18:13;;;;;;;233.25;76.80;;;;;;;6.01;100.00;102258.88;5054110;28;20025;-56
2023/04/08 05:20:38;;;;;;;227.60;75.93;;;;;;;6.01;100.00;102258.88;5054509;28;20542;-57
2023/04/08 05:23:03;;;;;;;214.35;76.32;;;;;;;6.01;100.00;102264.88;5053969;28;20473;-57
2023/04/08 05:25:29;;;;;;;258.23;78.03;;;;;;;6.01;100.00;102261.44;5053918;28;20064;-57
2023/04/08 05:27:55;;;;;;;213.00;74.85;;;;;;;6.02;100.00;102261.53;5054843;28;20028;-57
2023/04/08 05:30:21;;;;;;;216.05;75.70;;;;;;;6.02;100.00;102268.34;5054368;28;20031;-57
2023/04/08 05:32:46;;;;;;;205.25;72.03;;;;;;;6.01;100.00;102270.00;5053891;28;20415;-56
2023/04/08 05:35:11;;;;;;;203.20;71.88;;;;;;;6.02;100.00;102261.53;5054614;28;20035;-56
2023/04/08 05:37:36;;;;;;;201.75;73.15;;;;;;;6.04;100.00;102261.66;5054175;28;20025;-57
2023/04/08 05:40:02;;;;;;;195.07;72.65;;;;;;;6.07;100.00;102273.00;5053820;28;20487;-56
2023/04/08 05:42:27;;;;;;;205.02;73.72;;;;;;;6.10;100.00;102269.75;5054226;28;20068;-57
2023/04/08 05:44:53;;;;;;;189.95;72.15;;;;;;;6.12;100.00;102268.22;5054533;28;20021;-57
2023/04/08 05:47:18;;;;;;;209.65;74.10;;;;;;;6.13;100.00;102264.84;5053470;28;20029;-57
2023/04/08 05:49:43;;;;;;;242.23;78.40;;;;;;;6.17;100.00;102264.31;5054372;28;20432;-57
2023/04/08 05:52:08;;;;;;;229.55;78.90;;;;;;;6.19;100.00;102270.41;5054103;28;20036;-56
2023/04/08 05:54:34;;;;;;;235.57;76.70;;;;;;;6.23;100.00;102274.97;5053008;28;20033;-57
2023/04/08 05:56:59;;;;;;;222.63;76.40;;;;;;;6.22;100.00;102280.88;5054258;28;20063;-57
2023/04/08 05:59:25;;;;;;;191.65;69.40;;;;;;;6.24;100.00;102284.41;5053856;28;20040;-57
2023/04/08 06:01:50;;;;;;;196.38;73.85;;;;;;;6.25;100.00;102283.66;5052975;28;20075;-57
2023/04/08 06:04:16;;;;;;;178.70;69.18;;;;;;;6.28;100.00;102289.78;5053627;28;20025;-58
2023/04/08 06:06:42;;;;;;;174.02;66.90;;;;;;;6.30;100.00;102290.75;5053804;28;20071;-57
2023/04/08 06:09:08;;;;;;;174.13;69.22;;;;;;;6.34;100.00;102287.63;5052969;28;20380;-57
2023/04/08 06:11:34;;;;;;;175.10;67.78;;;;;;;6.42;100.00;102295.06;5053686;28;20028;-57
2023/04/08 06:13:59;;;;;;;163.25;67.55;;;;;;;6.48;100.00;102283.47;5053429;28;20067;-57
2023/04/08 06:16:25;;;;;;;154.63;65.10;;;;;;;6.49;100.00;102283.56;5053453;28;20033;-57
2023/04/08 06:18:50;;;;;;;134.75;59.95;;;;;;;6.50;100.00;102292.16;5053555;28;20033;-56
2023/04/08 06:21:16;;;;;;;119.32;57.60;;;;;;;6.49;100.00;102300.63;5052522;28;20063;-57
2023/04/08 06:23:41;;;;;;;119.05;55.90;;;;;;;6.52;100.00;102296.59;5053806;28;20048;-57
2023/04/08 06:26:07;;;;;;;113.20;56.28;;;;;;;6.59;100.00;102306.47;5053720;28;20530;-57
2023/04/08 06:28:32;;;;;;;107.80;55.72;;;;;;;6.62;100.00;102308.34;5052549;28;20028;-56
2023/04/08 06:30:58;;;;;;;103.07;55.30;;;;;;;6.67;100.00;102311.25;5053660;28;20061;-57
2023/04/08 06:33:24;;;;;;;92.40;51.55;;;;;;;6.69;100.00;102309.69;5052473;28;20071;-57
2023/04/08 06:35:49;;;;;;;88.70;51.55;;;;;;;6.74;100.00;102321.16;5052264;28;20075;-57
2023/04/08 06:38:14;;;;;;;87.75;51.65;;;;;;;6.77;100.00;102323.91;5053257;28;20033;-57
2023/04/08 06:40:40;;;;;;;82.70;49.42;;;;;;;6.84;100.00;102328.69;5053151;28;20435;-57
2023/04/08 06:43:08;;;;;;;81.10;48.45;;;;;;;6.90;100.00;102323.97;5052570;28;20083;-57
2023/04/08 06:45:34;;;;;;;75.47;47.17;;;;;;;6.95;100.00;102331.09;5052943;28;20108;-57
2023/04/08 06:47:59;;;;;;;72.78;46.22;;;;;;;7.00;100.00;102327.19;5053170;28;20060;-57
2023/04/08 06:50:25;;;;;;;70.55;46.63;;;;;;;7.02;100.00;102333.28;5052061;28;20024;-57
2023/04/08 06:52:50;;;;;;;63.08;41.72;;;;;;;7.03;100.00;102337.63;5053084;28;20059;-57
2023/04/08 06:55:16;;;;;;;60.55;41.45;;;;;;;7.12;100.00;102342.50;5053149;28;20017;-57
2023/04/08 06:57:41;;;;;;;59.67;40.88;;;;;;;7.18;100.00;102348.91;5052449;28;20033;-57
2023/04/08 07:00:09;;;;;;;58.92;40.05;;;;;;;7.20;100.00;102342.19;5052961;28;20025;-57
2023/04/08 07:02:35;;;;;;;54.88;40.00;;;;;;;7.27;100.00;102346.09;5052593;28;20462;-57
2023/04/08 07:05:00;;;;;;;53.08;38.03;;;;;;;7.38;100.00;102354.50;5052182;28;20476;-57
2023/04/08 07:07:26;;;;;;;55.53;40.50;;;;;;;7.38;100.00;102357.94;5052654;28;20025;-57
2023/04/08 07:09:51;;;;;;;58.53;41.17;;;;;;;7.35;100.00;102362.88;5053033;28;20040;-57
2023/04/08 07:12:16;;;;;;;55.40;39.33;;;;;;;7.30;100.00;102365.94;5051968;28;20426;-57
2023/04/08 07:14:42;;;;;;;55.67;39.83;;;;;;;7.28;100.00;102367.50;5052803;28;20406;-57
2023/04/08 07:17:07;;;;;;;54.63;37.95;;;;;;;7.30;100.00;102368.50;5052753;28;20043;-56
2023/04/08 07:19:32;;;;;;;52.72;37.28;;;;;;;7.32;100.00;102367.81;5051624;28;20029;-57
2023/04/08 07:21:57;;;;;;;50.20;36.47;;;;;;;7.41;100.00;102373.56;5052734;28;20021;-57
2023/04/08 07:24:23;;;;;;;52.03;37.38;;;;;;;7.46;100.00;102376.41;5051851;28;20017;-57
2023/04/08 07:26:48;;;;;;;50.67;36.13;;;;;;;7.55;100.00;102384.75;5052707;28;20539;-57
2023/04/08 07:29:14;;;;;;;53.20;36.83;;;;;;;7.57;100.00;102380.59;5052654;28;20029;-56
2023/04/08 07:31:42;;;;;;;50.42;37.30;;;;;;;7.62;100.00;102395.38;5051656;28;20028;-56
2023/04/08 07:34:07;;;;;;;61.85;41.00;;;;;;;7.62;100.00;102387.69;5052743;28;20029;-56
2023/04/08 07:36:35;;;;;;;62.55;42.08;;;;;;;7.64;100.00;102386.13;5052262;28;20021;-56
2023/04/08 07:39:00;;;;;;;59.25;40.95;;;;;;;7.56;100.00;102380.50;5051541;28;20469;-56
2023/04/08 07:41:26;;;;;;;57.13;39.97;;;;;;;7.58;100.00;102390.06;5052415;28;20032;-56
2023/04/08 07:43:51;;;;;;;58.00;40.10;;;;;;;7.61;100.00;102389.38;5052668;28;20025;-56
2023/04/08 07:46:16;;;;;;;53.15;39.13;;;;;;;7.66;100.00;102397.41;5054195;28;20036;-56
2023/04/08 07:48:41;;;;;;;54.47;39.42;;;;;;;7.66;100.00;102393.16;5056541;28;20025;-56
2023/04/08 07:51:08;;;;;;;57.95;40.95;;;;;;;7.68;100.00;102399.28;5056448;28;20118;-55
2023/04/08 07:53:34;;;;;;;56.30;39.28;;;;;;;7.68;100.00;102398.38;5055315;28;20461;-55
2023/04/08 07:56:02;;;;;;;62.15;41.88;;;;;;;7.63;100.00;102402.31;5056498;28;20104;-55
2023/04/08 07:58:28;;;;;;;59.97;41.33;;;;;;;7.62;100.00;102397.94;5055925;28;20029;-54
2023/04/08 08:00:53;;;;;;;55.75;39.33;;;;;;;7.60;100.00;102405.56;5055671;28;20306;-56
2023/04/08 08:03:18;;;;;;;56.55;39.10;;;;;;;7.65;100.00;102413.56;5055692;28;20041;-56
2023/04/08 08:05:43;;;;;;;57.45;40.17;;;;;;;7.55;100.00;102407.84;5055997;28;20032;-55
2023/04/08 08:08:12;;;;;;;54.90;39.38;;;;;;;7.48;100.00;102409.88;5055455;28;20020;-55
2023/04/08 08:10:38;;;;;;;53.53;38.88;;;;;;;7.40;100.00;102419.63;5055799;28;20607;-55
2023/04/08 08:13:05;;;;;;;54.80;38.75;;;;;;;7.38;100.00;102413.50;5056142;28;20040;-55
2023/04/08 08:15:30;;;;;;;53.22;39.08;;;;;;;7.44;100.00;102416.47;5055027;28;20373;-55
2023/04/08 08:17:55;;;;;;;58.65;41.42;;;;;;;7.50;100.00;102419.47;5055887;28;20464;-55
2023/04/08 08:20:21;;;;;;;66.32;43.00;;;;;;;7.54;100.00;102426.56;5055397;28;20428;-55
2023/04/08 08:22:46;;;;;;;60.08;41.72;;;;;;;7.60;100.00;102422.63;5055181;28;20044;-54
2023/04/08 08:25:12;;;;;;;60.00;41.45;;;;;;;7.57;100.00;102426.75;5056041;28;20029;-56
2023/04/08 08:27:39;;;;;;;57.08;41.17;;;;;;;7.57;100.00;102431.91;5054919;28;20025;-56
2023/04/08 08:30:05;;;;;;;56.78;38.53;;;;;;;7.51;100.00;102426.34;5055693;28;20048;-56
2023/04/08 08:32:31;;;;;;;58.13;40.13;;;;;;;7.52;100.00;102424.69;5055431;28;20025;-56
2023/04/08 08:34:56;;;;;;;51.83;38.72;;;;;;;7.62;100.00;102426.19;5054841;28;20074;-56
2023/04/08 08:37:22;;;;;;;54.22;39.33;;;;;;;7.65;100.00;102423.84;5055461;28;20107;-55
2023/04/08 08:39:47;;;;;;;55.85;39.08;;;;;;;7.67;100.00;102437.63;5055374;28;20036;-56
2023/04/08 08:42:23;;;;;;;58.65;41.67;;;;;;;7.77;100.00;102442.59;5054884;28;20027;-56
2023/04/08 08:44:49;;;;;;;56.78;41.05;;;;;;;7.79;100.00;102446.19;5055611;28;20029;-54
2023/04/08 08:47:15;;;;;;;55.13;39.75;;;;;;;7.78;100.00;102448.66;5055537;28;20025;-56
2023/04/08 08:49:41;;;;;;;57.85;40.75;;;;;;;7.66;100.00;102444.47;5054802;28;20099;-56
2023/04/08 08:52:06;;;;;;;53.90;39.28;;;;;;;7.75;100.00;102451.91;5055523;28;20021;-55
2023/04/08 08:54:32;;;;;;;48.90;37.17;;;;;;;7.77;100.00;102450.31;5054920;28;20067;-56
2023/04/08 08:56:57;;;;;;;50.30;37.30;;;;;;;7.75;100.00;102447.63;5053519;28;20388;-56
2023/04/08 08:59:22;;;;;;;50.28;36.85;;;;;;;7.85;100.00;102449.16;5054845;28;20025;-55
2023/04/08 09:01:48;;;;;;;51.70;37.15;;;;;;;7.94;100.00;102448.88;5054931;28;20381;-56
2023/04/08 09:04:16;;;;;;;46.65;36.42;;;;;;;7.97;100.00;102455.91;5054340;28;20025;-55
2023/04/08 09:06:43;;;;;;;46.13;35.30;;;;;;;8.05;100.00;102462.41;5055124;28;20049;-55
2023/04/08 09:09:11;;;;;;;47.67;36.65;;;;;;;8.06;100.00;102462.50;5055122;28;20025;-55
2023/04/08 09:11:42;;;;;;;45.50;34.42;;;;;;;8.21;100.00;102470.34;5053861;28;20372;-55
2023/04/08 09:14:23;;;;;;;44.17;34.80;;;;;;;8.21;100.00;102472.91;5054757;28;20452;-56
2023/04/08 09:16:50;;;;;;;44.72;35.58;;;;;;;8.21;100.00;102478.06;5054332;28;20021;-55
2023/04/08 09:19:15;;;;;;;45.45;35.90;;;;;;;8.19;100.00;102477.06;5054666;28;20028;-56
2023/04/08 09:21:42;;;;;;;43.70;35.97;;;;;;;8.31;100.00;102471.81;5054912;28;20078;-55
2023/04/08 09:24:08;;;;;;;42.95;33.80;;;;;;;8.28;100.00;102473.31;5054078;28;20025;-55
2023/04/08 09:26:36;;;;;;;42.72;35.03;;;;;;;8.37;100.00;102473.91;5054419;28;20067;-56
2023/04/08 09:29:06;;;;;;;40.60;33.17;;;;;;;8.31;100.00;102486.34;5054605;28;20090;-56
2023/04/08 09:31:36;;;;;;;39.08;32.40;;;;;;;8.34;100.00;102482.31;5053762;28;20098;-56
2023/04/08 09:34:16;;;;;;;41.92;34.33;;;;;;;8.40;100.00;102486.94;5054803;28;20013;-56
2023/04/08 09:36:41;;;;;;;41.05;33.58;;;;;;;8.50;100.00;102488.47;5054557;28;20048;-55
2023/04/08 09:39:09;;;;;;;41.63;35.20;;;;;;;8.56;100.00;102484.63;5053596;28;20444;-56
2023/04/08 09:41:38;;;;;;;41.90;35.22;;;;;;;8.51;100.00;102482.56;5054023;28;20047;-56
2023/04/08 09:44:06;;;;;;;41.10;34.03;;;;;;;8.68;100.00;102483.63;5054585;28;20021;-56
2023/04/08 09:46:50;;;;;;;39.05;33.35;;;;;;;8.74;100.00;102489.16;5053473;28;20060;-56
2023/04/08 09:49:24;;;;;;;41.67;33.05;;;;;;;8.93;100.00;102482.59;5054124;28;20072;-56
2023/04/08 09:52:03;;;;;;;42.03;33.42;;;;;;;8.98;100.00;102488.91;5054257;28;20108;-56
2023/04/08 09:54:53;;;;;;;39.65;32.28;;;;;;;8.99;100.00;102501.88;5054115;28;20037;-56
2023/04/08 09:57:27;;;;;;;35.17;30.55;;;;;;;9.28;100.00;102494.19;5053832;28;20477;-56
2023/04/08 10:00:02;;;;;;;36.88;30.83;;;;;;;9.25;100.00;102501.72;5053204;28;20047;-57
2023/04/08 10:02:35;;;;;;;35.83;30.05;;;;;;;9.22;100.00;102500.72;5053762;28;20076;-55
2023/04/08 10:05:02;;;;;;;34.65;29.88;;;;;;;9.26;100.00;102506.03;5054154;28;20104;-56
2023/04/08 10:07:28;;;;;;;37.35;31.27;;;;;;;9.32;100.00;102498.72;5053137;28;20035;-55
2023/04/08 10:09:53;;;;;;;37.30;31.02;;;;;;;9.35;100.00;102504.06;5053519;28;20439;-55
2023/04/08 10:12:19;;;;;;;34.88;30.35;;;;;;;9.49;100.00;102503.22;5053422;28;20020;-55
2023/04/08 10:15:24;;;;;;;36.55;31.63;;;;;;;9.60;100.00;102490.97;5052935;28;20025;-55
2023/04/08 10:17:54;;;;;;;34.25;29.90;;;;;;;9.39;100.00;102501.75;5053663;28;20554;-53
2023/04/08 10:20:37;;;;;;;33.90;30.05;;;;;;;9.83;100.00;102492.34;5052778;28;20028;-56
2023/04/08 10:23:07;;;;;;;36.00;31.52;;;;;;;9.96;100.00;102487.94;5053510;28;20047;-56
2023/04/08 10:25:44;;;;;;;33.75;30.05;;;;;;;10.01;100.00;102496.81;5053255;28;20017;-56
2023/04/08 10:28:10;;;;;;;33.47;29.77;;;;;;;10.02;100.00;102496.03;5052850;28;20485;-56
2023/04/08 10:30:40;;;;;;;34.33;30.08;;;;;;;10.12;100.00;102489.69;5053265;28;20508;-56
2023/04/08 10:33:14;;;;;;;32.03;27.80;;;;;;;10.21;100.00;102491.13;5053784;28;20033;-56
2023/04/08 10:35:44;;;;;;;34.15;29.67;;;;;;;10.18;100.00;102485.78;5052383;28;20021;-56
2023/04/08 10:38:12;;;;;;;34.78;30.23;;;;;;;10.29;100.00;102491.56;5053335;28;20025;-55
2023/04/08 10:40:40;;;;;;;32.20;28.85;;;;;;;10.40;100.00;102473.28;5053091;28;20029;-56
2023/04/08 10:43:05;;;;;;;33.33;29.17;;;;;;;10.47;100.00;102478.88;5052531;28;20032;-55
2023/04/08 10:45:31;;;;;;;34.60;30.58;;;;;;;10.72;100.00;102477.66;5052991;28;20092;-56
2023/04/08 10:47:56;;;;;;;32.15;28.73;;;;;;;10.80;100.00;102467.75;5053057;28;20476;-56
2023/04/08 10:50:24;;;;;;;32.55;29.05;;;;;;;10.94;99.23;102471.09;5052065;28;20033;-56
2023/04/08 10:52:51;;;;;;;32.85;29.10;;;;;;;11.74;98.58;102459.78;5053303;28;20021;-56
2023/04/08 10:55:24;;;;;;;30.00;26.80;;;;;;;12.17;94.45;102464.56;5052272;28;20033;-56
2023/04/08 10:57:50;;;;;;;29.23;26.02;;;;;;;12.67;91.48;102457.44;5053117;28;20465;-54
2023/04/08 11:00:31;;;;;;;30.88;27.48;;;;;;;12.80;84.62;102461.47;5052783;28;20087;-56
2023/04/08 11:03:03;;;;;;;28.33;25.23;;;;;;;12.99;84.13;102458.03;5052167;28;20052;-55
2023/04/08 11:05:30;;;;;;;27.75;24.05;;;;;;;14.30;80.36;102460.16;5052783;28;20040;-56
2023/04/08 11:07:55;;;;;;;26.65;23.77;;;;;;;15.33;72.54;102457.13;5053022;28;20025;-56